sensor_id;sensor_type;location;lat;lon;timestamp;P1;durP1;ratioP1;P2;durP2;ratioP2
13493;SDS011;6819;50.886;4.332;2023-12-04T00:01:43;9.40;;;4.20;;
13493;SDS011;6819;50.886;4.332;2023-12-04T00:04:10;11.60;;;4.75;;
13493;SDS011;6819;50.886;4.332;2023-12-04T00:06:37;12.13;;;4.97;;
13493;SDS011;6819;50.886;4.332;2023-12-04T00:09:04;12.48;;;4.95;;
13493;SDS011;6819;50.886;4.332;2023-12-04T00:11:30;10.75;;;4.45;;
13493;SDS011;6819;50.886;4.332;2023-12-04T00:13:58;9.88;;;4.63;;
13493;SDS011;6819;50.886;4.332;2023-12-04T00:16:25;12.02;;;5.18;;
13493;SDS011;6819;50.886;4.332;2023-12-04T00:18:52;11.43;;;4.75;;
13493;SDS011;6819;50.886;4.332;2023-12-04T00:50:24;8.85;;;4.32;;
13493;SDS011;6819;50.886;4.332;2023-12-04T00:52:51;9.27;;;4.18;;
13493;SDS011;6819;50.886;4.332;2023-12-04T00:55:18;13.38;;;4.93;;
13493;SDS011;6819;50.886;4.332;2023-12-04T00:57:45;9.50;;;4.45;;
13493;SDS011;6819;50.886;4.332;2023-12-04T01:00:13;9.63;;;4.15;;
13493;SDS011;6819;50.886;4.332;2023-12-04T01:02:40;6.95;;;3.50;;
13493;SDS011;6819;50.886;4.332;2023-12-04T01:05:07;13.40;;;4.05;;
13493;SDS011;6819;50.886;4.332;2023-12-04T01:07:35;9.05;;;3.88;;
13493;SDS011;6819;50.886;4.332;2023-12-04T01:10:03;9.00;;;4.22;;
13493;SDS011;6819;50.886;4.332;2023-12-04T01:12:30;9.40;;;4.47;;
13493;SDS011;6819;50.886;4.332;2023-12-04T01:14:57;10.30;;;5.20;;
13493;SDS011;6819;50.886;4.332;2023-12-04T01:17:24;9.95;;;4.68;;
13493;SDS011;6819;50.886;4.332;2023-12-04T01:19:52;6.97;;;3.88;;
13493;SDS011;6819;50.886;4.332;2023-12-04T01:22:19;9.93;;;4.20;;
13493;SDS011;6819;50.886;4.332;2023-12-04T01:24:46;9.23;;;4.03;;
13493;SDS011;6819;50.886;4.332;2023-12-04T01:27:13;13.88;;;4.18;;
13493;SDS011;6819;50.886;4.332;2023-12-04T01:29:40;10.15;;;4.40;;
13493;SDS011;6819;50.886;4.332;2023-12-04T01:32:07;10.15;;;4.03;;
13493;SDS011;6819;50.886;4.332;2023-12-04T01:34:35;8.27;;;4.15;;
13493;SDS011;6819;50.886;4.332;2023-12-04T01:37:02;9.25;;;3.67;;
13493;SDS011;6819;50.886;4.332;2023-12-04T01:39:29;9.35;;;4.13;;
13493;SDS011;6819;50.886;4.332;2023-12-04T01:41:56;7.55;;;3.78;;
13493;SDS011;6819;50.886;4.332;2023-12-04T01:44:23;9.40;;;4.00;;
13493;SDS011;6819;50.886;4.332;2023-12-04T01:46:50;8.40;;;4.10;;
13493;SDS011;6819;50.886;4.332;2023-12-04T01:49:18;6.93;;;3.20;;
13493;SDS011;6819;50.886;4.332;2023-12-04T01:51:45;10.00;;;3.70;;
13493;SDS011;6819;50.886;4.332;2023-12-04T01:54:13;7.22;;;3.65;;
13493;SDS011;6819;50.886;4.332;2023-12-04T01:56:40;9.98;;;3.92;;
13493;SDS011;6819;50.886;4.332;2023-12-04T01:59:07;7.82;;;3.60;;
13493;SDS011;6819;50.886;4.332;2023-12-04T02:01:34;6.10;;;3.50;;
13493;SDS011;6819;50.886;4.332;2023-12-04T02:04:03;6.70;;;3.40;;
13493;SDS011;6819;50.886;4.332;2023-12-04T02:06:30;7.53;;;3.63;;
13493;SDS011;6819;50.886;4.332;2023-12-04T02:08:57;7.07;;;3.40;;
13493;SDS011;6819;50.886;4.332;2023-12-04T02:11:24;9.30;;;3.60;;
13493;SDS011;6819;50.886;4.332;2023-12-04T02:13:52;8.63;;;3.72;;
13493;SDS011;6819;50.886;4.332;2023-12-04T02:16:18;10.40;;;3.67;;
13493;SDS011;6819;50.886;4.332;2023-12-04T02:18:45;7.13;;;3.28;;
13493;SDS011;6819;50.886;4.332;2023-12-04T02:21:11;6.25;;;3.05;;
13493;SDS011;6819;50.886;4.332;2023-12-04T02:23:37;5.32;;;2.75;;
13493;SDS011;6819;50.886;4.332;2023-12-04T02:26:06;7.70;;;3.42;;
13493;SDS011;6819;50.886;4.332;2023-12-04T02:28:33;7.13;;;3.30;;
13493;SDS011;6819;50.886;4.332;2023-12-04T02:31:01;6.63;;;2.85;;
13493;SDS011;6819;50.886;4.332;2023-12-04T02:33:29;7.55;;;3.30;;
13493;SDS011;6819;50.886;4.332;2023-12-04T02:35:57;7.18;;;2.83;;
13493;SDS011;6819;50.886;4.332;2023-12-04T02:38:24;5.85;;;3.03;;
13493;SDS011;6819;50.886;4.332;2023-12-04T02:40:52;6.95;;;3.60;;
13493;SDS011;6819;50.886;4.332;2023-12-04T02:43:20;6.25;;;2.90;;
13493;SDS011;6819;50.886;4.332;2023-12-04T02:45:48;6.82;;;3.25;;
13493;SDS011;6819;50.886;4.332;2023-12-04T02:48:15;7.35;;;3.10;;
13493;SDS011;6819;50.886;4.332;2023-12-04T02:50:43;7.35;;;3.38;;
13493;SDS011;6819;50.886;4.332;2023-12-04T02:53:11;7.65;;;3.22;;
13493;SDS011;6819;50.886;4.332;2023-12-04T02:55:38;6.28;;;2.60;;
13493;SDS011;6819;50.886;4.332;2023-12-04T02:58:06;6.88;;;3.25;;
13493;SDS011;6819;50.886;4.332;2023-12-04T03:00:33;8.40;;;3.60;;
13493;SDS011;6819;50.886;4.332;2023-12-04T03:03:01;9.18;;;3.03;;
13493;SDS011;6819;50.886;4.332;2023-12-04T03:05:27;8.50;;;3.25;;
13493;SDS011;6819;50.886;4.332;2023-12-04T03:07:56;7.05;;;3.33;;
13493;SDS011;6819;50.886;4.332;2023-12-04T03:10:23;9.88;;;2.92;;
13493;SDS011;6819;50.886;4.332;2023-12-04T03:12:51;8.77;;;3.10;;
13493;SDS011;6819;50.886;4.332;2023-12-04T03:15:18;8.35;;;3.05;;
13493;SDS011;6819;50.886;4.332;2023-12-04T03:17:46;7.78;;;3.28;;
13493;SDS011;6819;50.886;4.332;2023-12-04T03:20:14;4.53;;;2.63;;
13493;SDS011;6819;50.886;4.332;2023-12-04T03:22:41;6.30;;;2.88;;
13493;SDS011;6819;50.886;4.332;2023-12-04T03:25:09;5.20;;;2.63;;
13493;SDS011;6819;50.886;4.332;2023-12-04T03:27:36;6.13;;;3.00;;
13493;SDS011;6819;50.886;4.332;2023-12-04T03:30:04;5.82;;;2.55;;
13493;SDS011;6819;50.886;4.332;2023-12-04T03:32:32;7.22;;;3.00;;
13493;SDS011;6819;50.886;4.332;2023-12-04T03:34:59;6.15;;;3.17;;
13493;SDS011;6819;50.886;4.332;2023-12-04T03:37:26;6.57;;;2.78;;
13493;SDS011;6819;50.886;4.332;2023-12-04T03:39:53;4.85;;;2.53;;
13493;SDS011;6819;50.886;4.332;2023-12-04T03:42:21;5.75;;;3.25;;
13493;SDS011;6819;50.886;4.332;2023-12-04T03:44:49;6.40;;;2.55;;
13493;SDS011;6819;50.886;4.332;2023-12-04T03:47:16;6.45;;;3.03;;
13493;SDS011;6819;50.886;4.332;2023-12-04T03:49:44;5.40;;;2.97;;
13493;SDS011;6819;50.886;4.332;2023-12-04T03:52:11;5.00;;;2.40;;
13493;SDS011;6819;50.886;4.332;2023-12-04T03:54:39;4.97;;;3.05;;
13493;SDS011;6819;50.886;4.332;2023-12-04T03:57:07;5.93;;;2.90;;
13493;SDS011;6819;50.886;4.332;2023-12-04T03:59:35;5.93;;;2.88;;
13493;SDS011;6819;50.886;4.332;2023-12-04T04:02:03;5.72;;;2.75;;
13493;SDS011;6819;50.886;4.332;2023-12-04T04:04:30;7.68;;;2.85;;
13493;SDS011;6819;50.886;4.332;2023-12-04T04:06:57;5.03;;;2.90;;
13493;SDS011;6819;50.886;4.332;2023-12-04T04:09:23;5.00;;;2.78;;
13493;SDS011;6819;50.886;4.332;2023-12-04T04:11:50;5.82;;;2.92;;
13493;SDS011;6819;50.886;4.332;2023-12-04T04:14:18;6.90;;;2.90;;
13493;SDS011;6819;50.886;4.332;2023-12-04T04:16:45;5.82;;;2.95;;
13493;SDS011;6819;50.886;4.332;2023-12-04T04:19:11;7.53;;;3.60;;
13493;SDS011;6819;50.886;4.332;2023-12-04T04:21:40;3.90;;;2.35;;
13493;SDS011;6819;50.886;4.332;2023-12-04T04:24:08;4.63;;;2.58;;
13493;SDS011;6819;50.886;4.332;2023-12-04T04:26:35;5.50;;;2.85;;
13493;SDS011;6819;50.886;4.332;2023-12-04T04:29:03;5.88;;;2.75;;
13493;SDS011;6819;50.886;4.332;2023-12-04T04:31:31;5.97;;;2.28;;
13493;SDS011;6819;50.886;4.332;2023-12-04T04:33:58;4.57;;;2.63;;
13493;SDS011;6819;50.886;4.332;2023-12-04T04:36:26;6.43;;;3.13;;
13493;SDS011;6819;50.886;4.332;2023-12-04T04:38:52;6.18;;;2.58;;
13493;SDS011;6819;50.886;4.332;2023-12-04T04:41:18;5.95;;;2.78;;
13493;SDS011;6819;50.886;4.332;2023-12-04T04:43:45;6.30;;;2.95;;
13493;SDS011;6819;50.886;4.332;2023-12-04T04:46:12;4.50;;;2.47;;
13493;SDS011;6819;50.886;4.332;2023-12-04T04:48:40;5.20;;;2.55;;
13493;SDS011;6819;50.886;4.332;2023-12-04T04:51:08;4.18;;;2.22;;
13493;SDS011;6819;50.886;4.332;2023-12-04T04:53:35;11.82;;;3.08;;
13493;SDS011;6819;50.886;4.332;2023-12-04T04:56:03;5.65;;;2.65;;
13493;SDS011;6819;50.886;4.332;2023-12-04T04:58:31;6.13;;;2.90;;
13493;SDS011;6819;50.886;4.332;2023-12-04T05:00:58;4.07;;;2.33;;
13493;SDS011;6819;50.886;4.332;2023-12-04T05:03:26;5.40;;;2.58;;
13493;SDS011;6819;50.886;4.332;2023-12-04T05:05:53;5.55;;;3.00;;
13493;SDS011;6819;50.886;4.332;2023-12-04T05:08:21;4.65;;;2.25;;
13493;SDS011;6819;50.886;4.332;2023-12-04T05:10:49;5.95;;;2.50;;
13493;SDS011;6819;50.886;4.332;2023-12-04T05:13:16;4.97;;;2.90;;
13493;SDS011;6819;50.886;4.332;2023-12-04T05:15:44;5.28;;;2.92;;
13493;SDS011;6819;50.886;4.332;2023-12-04T05:18:12;5.82;;;2.08;;
13493;SDS011;6819;50.886;4.332;2023-12-04T05:20:38;4.53;;;2.63;;
13493;SDS011;6819;50.886;4.332;2023-12-04T05:23:04;6.00;;;2.95;;
13493;SDS011;6819;50.886;4.332;2023-12-04T05:25:30;5.13;;;2.50;;
13493;SDS011;6819;50.886;4.332;2023-12-04T05:27:57;4.63;;;2.55;;
13493;SDS011;6819;50.886;4.332;2023-12-04T05:30:25;5.68;;;2.78;;
13493;SDS011;6819;50.886;4.332;2023-12-04T05:32:52;5.30;;;2.95;;
13493;SDS011;6819;50.886;4.332;2023-12-04T05:35:20;4.88;;;2.58;;
13493;SDS011;6819;50.886;4.332;2023-12-04T05:37:48;7.15;;;3.58;;
13493;SDS011;6819;50.886;4.332;2023-12-04T05:40:15;5.00;;;2.55;;
13493;SDS011;6819;50.886;4.332;2023-12-04T05:42:43;5.28;;;2.60;;
13493;SDS011;6819;50.886;4.332;2023-12-04T05:45:10;8.20;;;2.80;;
13493;SDS011;6819;50.886;4.332;2023-12-04T05:47:38;6.72;;;2.95;;
13493;SDS011;6819;50.886;4.332;2023-12-04T05:50:06;4.82;;;2.38;;
13493;SDS011;6819;50.886;4.332;2023-12-04T05:52:34;4.20;;;2.25;;
13493;SDS011;6819;50.886;4.332;2023-12-04T05:55:01;4.57;;;2.47;;
13493;SDS011;6819;50.886;4.332;2023-12-04T05:57:29;4.47;;;2.30;;
13493;SDS011;6819;50.886;4.332;2023-12-04T05:59:56;4.43;;;2.35;;
13493;SDS011;6819;50.886;4.332;2023-12-04T06:02:24;4.43;;;2.38;;
13493;SDS011;6819;50.886;4.332;2023-12-04T06:04:55;4.15;;;2.15;;
13493;SDS011;6819;50.886;4.332;2023-12-04T06:07:22;5.50;;;2.38;;
13493;SDS011;6819;50.886;4.332;2023-12-04T06:09:50;4.57;;;2.30;;
13493;SDS011;6819;50.886;4.332;2023-12-04T06:12:17;8.07;;;2.25;;
13493;SDS011;6819;50.886;4.332;2023-12-04T06:14:45;4.03;;;2.30;;
13493;SDS011;6819;50.886;4.332;2023-12-04T06:17:12;5.70;;;2.80;;
13493;SDS011;6819;50.886;4.332;2023-12-04T06:19:41;5.10;;;2.60;;
13493;SDS011;6819;50.886;4.332;2023-12-04T06:22:07;4.15;;;2.42;;
13493;SDS011;6819;50.886;4.332;2023-12-04T06:24:33;7.03;;;2.85;;
13493;SDS011;6819;50.886;4.332;2023-12-04T06:26:59;5.60;;;2.33;;
13493;SDS011;6819;50.886;4.332;2023-12-04T06:29:25;5.93;;;2.78;;
13493;SDS011;6819;50.886;4.332;2023-12-04T06:31:52;8.32;;;2.22;;
13493;SDS011;6819;50.886;4.332;2023-12-04T06:34:19;4.53;;;2.47;;
13493;SDS011;6819;50.886;4.332;2023-12-04T06:36:47;5.15;;;2.53;;
13493;SDS011;6819;50.886;4.332;2023-12-04T06:39:15;6.15;;;2.78;;
13493;SDS011;6819;50.886;4.332;2023-12-04T06:41:43;5.15;;;2.70;;
13493;SDS011;6819;50.886;4.332;2023-12-04T06:44:13;5.50;;;2.75;;
13493;SDS011;6819;50.886;4.332;2023-12-04T06:46:41;4.40;;;2.63;;
13493;SDS011;6819;50.886;4.332;2023-12-04T06:49:10;6.28;;;2.92;;
13493;SDS011;6819;50.886;4.332;2023-12-04T06:51:39;4.32;;;2.60;;
13493;SDS011;6819;50.886;4.332;2023-12-04T06:54:05;6.53;;;3.28;;
13493;SDS011;6819;50.886;4.332;2023-12-04T06:56:32;7.40;;;2.67;;
13493;SDS011;6819;50.886;4.332;2023-12-04T06:58:59;6.55;;;2.83;;
13493;SDS011;6819;50.886;4.332;2023-12-04T07:01:26;6.10;;;3.00;;
13493;SDS011;6819;50.886;4.332;2023-12-04T07:03:54;5.75;;;2.97;;
13493;SDS011;6819;50.886;4.332;2023-12-04T07:06:22;5.50;;;2.65;;
13493;SDS011;6819;50.886;4.332;2023-12-04T07:08:49;5.45;;;2.67;;
13493;SDS011;6819;50.886;4.332;2023-12-04T07:11:16;4.85;;;2.75;;
13493;SDS011;6819;50.886;4.332;2023-12-04T07:13:43;6.07;;;2.97;;
13493;SDS011;6819;50.886;4.332;2023-12-04T07:16:10;6.07;;;2.92;;
13493;SDS011;6819;50.886;4.332;2023-12-04T07:18:38;6.47;;;3.28;;
13493;SDS011;6819;50.886;4.332;2023-12-04T07:21:06;5.60;;;2.60;;
13493;SDS011;6819;50.886;4.332;2023-12-04T07:23:35;5.90;;;3.13;;
13493;SDS011;6819;50.886;4.332;2023-12-04T07:26:03;5.13;;;2.97;;
13493;SDS011;6819;50.886;4.332;2023-12-04T07:28:32;6.95;;;2.80;;
13493;SDS011;6819;50.886;4.332;2023-12-04T07:31:00;5.40;;;3.03;;
13493;SDS011;6819;50.886;4.332;2023-12-04T07:33:28;9.13;;;3.92;;
13493;SDS011;6819;50.886;4.332;2023-12-04T07:35:57;5.07;;;2.67;;
13493;SDS011;6819;50.886;4.332;2023-12-04T07:38:24;7.07;;;3.20;;
13493;SDS011;6819;50.886;4.332;2023-12-04T07:40:53;7.53;;;3.08;;
13493;SDS011;6819;50.886;4.332;2023-12-04T07:43:22;5.28;;;2.83;;
13493;SDS011;6819;50.886;4.332;2023-12-04T07:45:52;7.00;;;3.00;;
13493;SDS011;6819;50.886;4.332;2023-12-04T07:48:21;6.15;;;3.05;;
13493;SDS011;6819;50.886;4.332;2023-12-04T07:50:50;4.80;;;2.95;;
13493;SDS011;6819;50.886;4.332;2023-12-04T07:53:19;5.18;;;3.28;;
13493;SDS011;6819;50.886;4.332;2023-12-04T07:55:48;8.10;;;2.97;;
13493;SDS011;6819;50.886;4.332;2023-12-04T07:58:17;6.85;;;3.30;;
13493;SDS011;6819;50.886;4.332;2023-12-04T08:00:46;9.20;;;3.35;;
13493;SDS011;6819;50.886;4.332;2023-12-04T08:03:15;6.25;;;3.22;;
13493;SDS011;6819;50.886;4.332;2023-12-04T08:05:42;12.20;;;3.13;;
13493;SDS011;6819;50.886;4.332;2023-12-04T08:08:08;6.97;;;3.55;;
13493;SDS011;6819;50.886;4.332;2023-12-04T08:10:36;6.80;;;3.63;;
13493;SDS011;6819;50.886;4.332;2023-12-04T08:13:03;6.63;;;3.55;;
13493;SDS011;6819;50.886;4.332;2023-12-04T08:15:31;10.00;;;2.85;;
13493;SDS011;6819;50.886;4.332;2023-12-04T08:17:57;6.38;;;3.58;;
13493;SDS011;6819;50.886;4.332;2023-12-04T08:20:25;5.25;;;3.05;;
13493;SDS011;6819;50.886;4.332;2023-12-04T08:22:51;8.48;;;3.60;;
13493;SDS011;6819;50.886;4.332;2023-12-04T08:25:19;8.13;;;3.75;;
13493;SDS011;6819;50.886;4.332;2023-12-04T08:27:46;12.23;;;3.85;;
13493;SDS011;6819;50.886;4.332;2023-12-04T08:30:14;5.68;;;3.35;;
13493;SDS011;6819;50.886;4.332;2023-12-04T08:32:42;5.43;;;3.10;;
13493;SDS011;6819;50.886;4.332;2023-12-04T08:35:08;6.13;;;3.33;;
13493;SDS011;6819;50.886;4.332;2023-12-04T08:37:36;6.50;;;3.33;;
13493;SDS011;6819;50.886;4.332;2023-12-04T08:40:05;7.47;;;3.60;;
13493;SDS011;6819;50.886;4.332;2023-12-04T08:42:33;7.05;;;3.50;;
13493;SDS011;6819;50.886;4.332;2023-12-04T08:45:01;8.65;;;3.60;;
13493;SDS011;6819;50.886;4.332;2023-12-04T08:47:30;6.00;;;2.97;;
13493;SDS011;6819;50.886;4.332;2023-12-04T08:49:56;6.43;;;3.35;;
13493;SDS011;6819;50.886;4.332;2023-12-04T08:52:24;9.75;;;3.47;;
13493;SDS011;6819;50.886;4.332;2023-12-04T08:54:50;7.57;;;3.75;;
13493;SDS011;6819;50.886;4.332;2023-12-04T08:57:19;6.28;;;3.60;;
13493;SDS011;6819;50.886;4.332;2023-12-04T08:59:45;9.23;;;3.63;;
13493;SDS011;6819;50.886;4.332;2023-12-04T09:02:11;5.97;;;3.20;;
13493;SDS011;6819;50.886;4.332;2023-12-04T09:04:37;6.65;;;3.60;;
13493;SDS011;6819;50.886;4.332;2023-12-04T09:07:03;5.60;;;2.83;;
13493;SDS011;6819;50.886;4.332;2023-12-04T09:09:29;7.35;;;3.38;;
13493;SDS011;6819;50.886;4.332;2023-12-04T09:11:57;7.55;;;3.28;;
13493;SDS011;6819;50.886;4.332;2023-12-04T09:14:23;6.57;;;3.55;;
13493;SDS011;6819;50.886;4.332;2023-12-04T09:16:49;6.50;;;3.42;;
13493;SDS011;6819;50.886;4.332;2023-12-04T09:19:15;7.68;;;3.92;;
13493;SDS011;6819;50.886;4.332;2023-12-04T09:21:42;7.15;;;3.53;;
13493;SDS011;6819;50.886;4.332;2023-12-04T09:24:09;6.20;;;3.28;;
13493;SDS011;6819;50.886;4.332;2023-12-04T09:26:38;7.38;;;3.45;;
13493;SDS011;6819;50.886;4.332;2023-12-04T09:29:06;5.13;;;2.88;;
13493;SDS011;6819;50.886;4.332;2023-12-04T09:31:33;6.50;;;3.10;;
13493;SDS011;6819;50.886;4.332;2023-12-04T09:34:01;5.22;;;3.00;;
13493;SDS011;6819;50.886;4.332;2023-12-04T09:36:27;7.60;;;3.70;;
13493;SDS011;6819;50.886;4.332;2023-12-04T09:38:53;7.38;;;3.30;;
13493;SDS011;6819;50.886;4.332;2023-12-04T09:41:19;7.07;;;3.33;;
13493;SDS011;6819;50.886;4.332;2023-12-04T09:43:46;4.65;;;3.08;;
13493;SDS011;6819;50.886;4.332;2023-12-04T09:46:13;9.07;;;3.65;;
13493;SDS011;6819;50.886;4.332;2023-12-04T09:48:40;6.15;;;3.67;;
13493;SDS011;6819;50.886;4.332;2023-12-04T09:51:08;6.90;;;3.42;;
13493;SDS011;6819;50.886;4.332;2023-12-04T09:53:34;7.03;;;3.67;;
13493;SDS011;6819;50.886;4.332;2023-12-04T09:56:02;5.05;;;3.20;;
13493;SDS011;6819;50.886;4.332;2023-12-04T09:58:28;8.52;;;3.63;;
13493;SDS011;6819;50.886;4.332;2023-12-04T10:00:56;6.80;;;3.70;;
13493;SDS011;6819;50.886;4.332;2023-12-04T10:03:23;8.52;;;3.70;;
13493;SDS011;6819;50.886;4.332;2023-12-04T10:05:49;5.72;;;3.42;;
13493;SDS011;6819;50.886;4.332;2023-12-04T10:08:16;10.23;;;4.10;;
13493;SDS011;6819;50.886;4.332;2023-12-04T10:10:42;11.20;;;3.58;;
13493;SDS011;6819;50.886;4.332;2023-12-04T10:13:09;8.75;;;4.25;;
13493;SDS011;6819;50.886;4.332;2023-12-04T10:15:45;7.40;;;3.75;;
13493;SDS011;6819;50.886;4.332;2023-12-04T10:18:28;7.47;;;4.20;;
13493;SDS011;6819;50.886;4.332;2023-12-04T10:20:55;18.60;;;4.20;;
13493;SDS011;6819;50.886;4.332;2023-12-04T10:23:21;8.50;;;4.38;;
13493;SDS011;6819;50.886;4.332;2023-12-04T10:25:50;6.65;;;4.15;;
13493;SDS011;6819;50.886;4.332;2023-12-04T10:28:16;9.82;;;4.63;;
13493;SDS011;6819;50.886;4.332;2023-12-04T10:30:43;8.27;;;4.03;;
13493;SDS011;6819;50.886;4.332;2023-12-04T10:33:09;14.57;;;5.03;;
13493;SDS011;6819;50.886;4.332;2023-12-04T10:35:36;6.95;;;3.80;;
13493;SDS011;6819;50.886;4.332;2023-12-04T10:38:02;10.50;;;4.18;;
13493;SDS011;6819;50.886;4.332;2023-12-04T10:40:29;11.27;;;4.05;;
13493;SDS011;6819;50.886;4.332;2023-12-04T10:45:37;8.07;;;4.25;;
13493;SDS011;6819;50.886;4.332;2023-12-04T10:48:04;7.85;;;3.95;;
13493;SDS011;6819;50.886;4.332;2023-12-04T10:50:33;8.45;;;4.18;;
13493;SDS011;6819;50.886;4.332;2023-12-04T10:53:01;11.45;;;4.82;;
13493;SDS011;6819;50.886;4.332;2023-12-04T10:55:33;8.68;;;4.53;;
13493;SDS011;6819;50.886;4.332;2023-12-04T10:58:00;10.35;;;4.40;;
13493;SDS011;6819;50.886;4.332;2023-12-04T11:00:28;9.50;;;4.03;;
13493;SDS011;6819;50.886;4.332;2023-12-04T11:02:56;8.57;;;4.30;;
13493;SDS011;6819;50.886;4.332;2023-12-04T11:05:23;9.65;;;5.43;;
13493;SDS011;6819;50.886;4.332;2023-12-04T11:07:59;14.35;;;5.88;;
13493;SDS011;6819;50.886;4.332;2023-12-04T11:10:26;8.38;;;4.57;;
13493;SDS011;6819;50.886;4.332;2023-12-04T11:12:57;9.10;;;5.15;;
13493;SDS011;6819;50.886;4.332;2023-12-04T11:15:28;7.57;;;4.50;;
13493;SDS011;6819;50.886;4.332;2023-12-04T11:17:58;7.70;;;4.05;;
13493;SDS011;6819;50.886;4.332;2023-12-04T11:20:27;7.03;;;3.85;;
13493;SDS011;6819;50.886;4.332;2023-12-04T11:22:55;9.48;;;3.92;;
13493;SDS011;6819;50.886;4.332;2023-12-04T11:25:23;7.65;;;3.85;;
13493;SDS011;6819;50.886;4.332;2023-12-04T11:27:50;9.63;;;4.28;;
13493;SDS011;6819;50.886;4.332;2023-12-04T11:30:16;8.23;;;4.47;;
13493;SDS011;6819;50.886;4.332;2023-12-04T11:32:46;8.13;;;3.60;;
13493;SDS011;6819;50.886;4.332;2023-12-04T11:35:17;6.80;;;3.78;;
13493;SDS011;6819;50.886;4.332;2023-12-04T11:37:44;6.10;;;3.53;;
13493;SDS011;6819;50.886;4.332;2023-12-04T11:40:16;7.32;;;4.07;;
13493;SDS011;6819;50.886;4.332;2023-12-04T11:42:42;7.80;;;4.20;;
13493;SDS011;6819;50.886;4.332;2023-12-04T11:45:08;7.70;;;4.30;;
13493;SDS011;6819;50.886;4.332;2023-12-04T11:47:50;11.43;;;3.97;;
13493;SDS011;6819;50.886;4.332;2023-12-04T11:50:17;14.82;;;6.38;;
13493;SDS011;6819;50.886;4.332;2023-12-04T11:52:44;12.18;;;5.38;;
13493;SDS011;6819;50.886;4.332;2023-12-04T11:55:10;10.85;;;5.72;;
13493;SDS011;6819;50.886;4.332;2023-12-04T11:57:39;8.35;;;5.60;;
13493;SDS011;6819;50.886;4.332;2023-12-04T12:02:40;7.38;;;4.35;;
13493;SDS011;6819;50.886;4.332;2023-12-04T12:05:06;6.80;;;4.05;;
13493;SDS011;6819;50.886;4.332;2023-12-04T12:07:35;13.48;;;5.03;;
13493;SDS011;6819;50.886;4.332;2023-12-04T12:10:01;10.25;;;4.65;;
13493;SDS011;6819;50.886;4.332;2023-12-04T12:12:27;10.40;;;4.85;;
13493;SDS011;6819;50.886;4.332;2023-12-04T12:14:54;10.45;;;4.75;;
13493;SDS011;6819;50.886;4.332;2023-12-04T12:17:20;8.05;;;3.85;;
13493;SDS011;6819;50.886;4.332;2023-12-04T12:19:46;10.23;;;4.80;;
13493;SDS011;6819;50.886;4.332;2023-12-04T12:22:12;9.10;;;4.07;;
13493;SDS011;6819;50.886;4.332;2023-12-04T12:24:39;11.25;;;6.68;;
13493;SDS011;6819;50.886;4.332;2023-12-04T12:27:05;8.35;;;4.15;;
13493;SDS011;6819;50.886;4.332;2023-12-04T12:29:31;8.38;;;4.28;;
13493;SDS011;6819;50.886;4.332;2023-12-04T12:31:57;8.52;;;3.78;;
13493;SDS011;6819;50.886;4.332;2023-12-04T12:34:23;5.70;;;3.80;;
13493;SDS011;6819;50.886;4.332;2023-12-04T12:36:49;5.65;;;3.55;;
13493;SDS011;6819;50.886;4.332;2023-12-04T12:39:15;9.07;;;3.72;;
13493;SDS011;6819;50.886;4.332;2023-12-04T12:41:48;8.50;;;3.78;;
13493;SDS011;6819;50.886;4.332;2023-12-04T12:44:14;8.88;;;3.78;;
13493;SDS011;6819;50.886;4.332;2023-12-04T12:46:41;6.47;;;3.90;;
13493;SDS011;6819;50.886;4.332;2023-12-04T12:49:07;6.95;;;3.92;;
13493;SDS011;6819;50.886;4.332;2023-12-04T12:51:33;7.35;;;3.50;;
13493;SDS011;6819;50.886;4.332;2023-12-04T12:53:59;7.47;;;4.07;;
13493;SDS011;6819;50.886;4.332;2023-12-04T12:56:25;9.10;;;4.30;;
13493;SDS011;6819;50.886;4.332;2023-12-04T12:58:52;9.82;;;4.07;;
13493;SDS011;6819;50.886;4.332;2023-12-04T13:01:18;7.18;;;4.07;;
13493;SDS011;6819;50.886;4.332;2023-12-04T13:03:45;8.43;;;4.18;;
13493;SDS011;6819;50.886;4.332;2023-12-04T13:06:12;7.10;;;3.83;;
13493;SDS011;6819;50.886;4.332;2023-12-04T13:08:38;9.70;;;4.65;;
13493;SDS011;6819;50.886;4.332;2023-12-04T13:11:05;5.15;;;2.88;;
13493;SDS011;6819;50.886;4.332;2023-12-04T13:13:31;7.85;;;3.78;;
13493;SDS011;6819;50.886;4.332;2023-12-04T13:15:57;11.40;;;4.35;;
13493;SDS011;6819;50.886;4.332;2023-12-04T13:18:23;6.43;;;3.47;;
13493;SDS011;6819;50.886;4.332;2023-12-04T13:20:49;6.82;;;3.75;;
13493;SDS011;6819;50.886;4.332;2023-12-04T13:23:15;9.48;;;3.72;;
13493;SDS011;6819;50.886;4.332;2023-12-04T13:25:41;7.40;;;4.10;;
13493;SDS011;6819;50.886;4.332;2023-12-04T13:28:08;5.68;;;3.50;;
13493;SDS011;6819;50.886;4.332;2023-12-04T13:30:35;6.22;;;3.78;;
13493;SDS011;6819;50.886;4.332;2023-12-04T13:33:01;9.68;;;3.95;;
13493;SDS011;6819;50.886;4.332;2023-12-04T13:35:28;9.25;;;3.65;;
13493;SDS011;6819;50.886;4.332;2023-12-04T13:37:54;8.32;;;2.97;;
13493;SDS011;6819;50.886;4.332;2023-12-04T13:40:21;6.65;;;3.28;;
13493;SDS011;6819;50.886;4.332;2023-12-04T13:42:51;6.88;;;3.53;;
13493;SDS011;6819;50.886;4.332;2023-12-04T13:45:36;7.15;;;4.25;;
13493;SDS011;6819;50.886;4.332;2023-12-04T13:48:02;5.68;;;3.58;;
13493;SDS011;6819;50.886;4.332;2023-12-04T13:50:28;7.53;;;3.72;;
13493;SDS011;6819;50.886;4.332;2023-12-04T13:52:54;6.65;;;3.55;;
13493;SDS011;6819;50.886;4.332;2023-12-04T13:55:22;6.50;;;3.70;;
13493;SDS011;6819;50.886;4.332;2023-12-04T13:58:07;8.23;;;3.60;;
13493;SDS011;6819;50.886;4.332;2023-12-04T14:00:56;6.50;;;3.60;;
13493;SDS011;6819;50.886;4.332;2023-12-04T14:03:22;6.32;;;3.58;;
13493;SDS011;6819;50.886;4.332;2023-12-04T14:05:49;5.10;;;3.13;;
13493;SDS011;6819;50.886;4.332;2023-12-04T14:08:15;5.78;;;3.38;;
13493;SDS011;6819;50.886;4.332;2023-12-04T14:10:41;5.43;;;3.13;;
13493;SDS011;6819;50.886;4.332;2023-12-04T14:13:07;6.57;;;3.40;;
13493;SDS011;6819;50.886;4.332;2023-12-04T14:15:33;6.00;;;3.60;;
13493;SDS011;6819;50.886;4.332;2023-12-04T14:17:59;7.32;;;3.40;;
13493;SDS011;6819;50.886;4.332;2023-12-04T14:20:25;5.82;;;3.35;;
13493;SDS011;6819;50.886;4.332;2023-12-04T14:22:51;7.00;;;3.20;;
13493;SDS011;6819;50.886;4.332;2023-12-04T14:25:17;7.65;;;3.30;;
13493;SDS011;6819;50.886;4.332;2023-12-04T14:27:43;8.73;;;3.53;;
13493;SDS011;6819;50.886;4.332;2023-12-04T14:30:10;4.45;;;2.88;;
13493;SDS011;6819;50.886;4.332;2023-12-04T14:32:36;6.50;;;3.22;;
13493;SDS011;6819;50.886;4.332;2023-12-04T14:35:03;8.00;;;4.13;;
13493;SDS011;6819;50.886;4.332;2023-12-04T14:37:30;7.32;;;3.78;;
13493;SDS011;6819;50.886;4.332;2023-12-04T14:39:56;8.40;;;4.00;;
13493;SDS011;6819;50.886;4.332;2023-12-04T14:42:22;11.05;;;5.38;;
13493;SDS011;6819;50.886;4.332;2023-12-04T14:44:48;7.45;;;4.38;;
13493;SDS011;6819;50.886;4.332;2023-12-04T14:47:14;8.13;;;3.72;;
13493;SDS011;6819;50.886;4.332;2023-12-04T14:49:40;8.02;;;4.30;;
13493;SDS011;6819;50.886;4.332;2023-12-04T14:52:06;6.25;;;4.00;;
13493;SDS011;6819;50.886;4.332;2023-12-04T14:54:32;7.93;;;4.10;;
13493;SDS011;6819;50.886;4.332;2023-12-04T14:57:16;9.95;;;4.38;;
13493;SDS011;6819;50.886;4.332;2023-12-04T14:59:42;6.95;;;3.42;;
13493;SDS011;6819;50.886;4.332;2023-12-04T15:02:34;8.00;;;4.63;;
13493;SDS011;6819;50.886;4.332;2023-12-04T15:05:19;6.23;;;3.80;;
13493;SDS011;6819;50.886;4.332;2023-12-04T15:08:03;6.90;;;3.63;;
13493;SDS011;6819;50.886;4.332;2023-12-04T15:10:52;6.60;;;2.90;;
13493;SDS011;6819;50.886;4.332;2023-12-04T15:13:37;5.55;;;3.97;;
13493;SDS011;6819;50.886;4.332;2023-12-04T15:16:12;5.82;;;3.58;;
13493;SDS011;6819;50.886;4.332;2023-12-04T15:18:38;7.82;;;3.35;;
13493;SDS011;6819;50.886;4.332;2023-12-04T15:21:23;6.57;;;3.75;;
13493;SDS011;6819;50.886;4.332;2023-12-04T15:23:49;6.47;;;2.80;;
13493;SDS011;6819;50.886;4.332;2023-12-04T15:26:16;10.30;;;4.22;;
13493;SDS011;6819;50.886;4.332;2023-12-04T15:28:42;9.50;;;3.97;;
13493;SDS011;6819;50.886;4.332;2023-12-04T15:31:08;9.07;;;4.72;;
13493;SDS011;6819;50.886;4.332;2023-12-04T15:33:35;7.53;;;4.45;;
13493;SDS011;6819;50.886;4.332;2023-12-04T15:36:01;8.73;;;4.30;;
13493;SDS011;6819;50.886;4.332;2023-12-04T15:38:27;7.72;;;4.38;;